Time;durP1;ratioP1;P1;durP2;ratioP2;P2;SDS_P1;SDS_P2;PMS_P1;PMS_P2;Temp;Humidity;BMP_temperature;BMP_pressure;BME280_temperature;BME280_humidity;BME280_pressure;Samples;Min_cycle;Max_cycle;Signal;HPM_P1;HPM_P2
2022/07/17 00:01:03;;;;;;;2.80;2.47;;;;;;;;;;5026140;28;20175;-54
2022/07/17 00:03:29;;;;;;;3.87;2.77;;;;;;;;;;5026426;28;20527;-54
2022/07/17 00:05:55;;;;;;;2.77;2.23;;;;;;;;;;5027404;28;20645;-54
2022/07/17 00:08:21;;;;;;;3.47;2.63;;;;;;;;;;5025560;28;20619;-54
2022/07/17 00:10:47;;;;;;;2.40;2.20;;;;;;;;;;5009642;28;20914;-54
2022/07/17 00:13:13;;;;;;;3.07;2.60;;;;;;;;;;5024631;28;20202;-54
2022/07/17 00:15:39;;;;;;;3.20;3.00;;;;;;;;;;5009355;28;20581;-54
2022/07/17 00:18:07;;;;;;;2.93;2.30;;;;;;;;;;5025619;28;20581;-54
2022/07/17 00:20:33;;;;;;;2.53;2.20;;;;;;;;;;5026698;28;20217;-54
2022/07/17 00:22:59;;;;;;;2.83;2.10;;;;;;;;;;5006759;28;20183;-53
2022/07/17 00:25:26;;;;;;;4.07;3.40;;;;;;;;;;5021817;28;20179;-54
2022/07/17 00:27:52;;;;;;;2.50;2.30;;;;;;;;;;5023010;28;20287;-54
2022/07/17 00:30:19;;;;;;;3.30;2.73;;;;;;;;;;5018943;28;20236;-54
2022/07/17 00:32:45;;;;;;;2.63;2.40;;;;;;;;;;5024134;28;20184;-54
2022/07/17 00:35:12;;;;;;;3.20;2.20;;;;;;;;;;5021147;28;20245;-53
2022/07/17 00:37:39;;;;;;;2.40;2.20;;;;;;;;;;5005480;28;20225;-54
2022/07/17 00:40:06;;;;;;;4.30;2.37;;;;;;;;;;4989154;28;20170;-54
2022/07/17 00:42:32;;;;;;;3.30;2.53;;;;;;;;;;5004137;28;20194;-54
2022/07/17 00:44:58;;;;;;;2.33;2.13;;;;;;;;;;5004158;28;20575;-53
2022/07/17 00:47:24;;;;;;;4.13;2.20;;;;;;;;;;5004897;28;20183;-54
2022/07/17 00:49:50;;;;;;;3.97;2.30;;;;;;;;;;5007394;28;20617;-54
2022/07/17 00:52:17;;;;;;;2.10;1.90;;;;;;;;;;5004527;28;20201;-53
2022/07/17 00:54:44;;;;;;;2.43;2.23;;;;;;;;;;4988972;28;20204;-54
2022/07/17 00:57:12;;;;;;;3.20;2.17;;;;;;;;;;5004792;28;20527;-54
2022/07/17 00:59:39;;;;;;;2.80;2.33;;;;;;;;;;5006464;28;20190;-54
2022/07/17 01:02:09;;;;;;;2.97;2.10;;;;;;;;;;5008455;28;20270;-54
2022/07/17 01:04:36;;;;;;;2.13;1.93;;;;;;;;;;5010207;28;20194;-54
2022/07/17 01:07:02;;;;;;;2.97;2.30;;;;;;;;;;5008722;28;20187;-54
2022/07/17 01:09:29;;;;;;;3.67;2.33;;;;;;;;;;5009813;28;20190;-54
2022/07/17 01:11:56;;;;;;;3.37;2.47;;;;;;;;;;5007843;28;20625;-54
2022/07/17 01:14:23;;;;;;;3.30;2.30;;;;;;;;;;5009993;28;20190;-54
2022/07/17 01:16:49;;;;;;;3.77;2.60;;;;;;;;;;5008703;28;20185;-54
2022/07/17 01:19:15;;;;;;;2.43;2.23;;;;;;;;;;5010786;28;20167;-54
2022/07/17 01:21:42;;;;;;;2.27;2.07;;;;;;;;;;5005799;28;20182;-54
2022/07/17 01:24:11;;;;;;;2.23;2.00;;;;;;;;;;5008602;28;20178;-54
2022/07/17 01:26:38;;;;;;;2.47;2.27;;;;;;;;;;5016029;28;20241;-54
2022/07/17 01:29:04;;;;;;;2.70;2.40;;;;;;;;;;5009706;28;20525;-54
2022/07/17 01:31:30;;;;;;;2.57;2.00;;;;;;;;;;5005744;28;20636;-54
2022/07/17 01:34:03;;;;;;;2.73;2.53;;;;;;;;;;5002547;28;20232;-54
2022/07/17 01:36:29;;;;;;;2.33;1.90;;;;;;;;;;5023901;28;20678;-54
2022/07/17 01:38:56;;;;;;;2.57;2.20;;;;;;;;;;5026435;28;20181;-54
2022/07/17 01:41:22;;;;;;;3.37;2.23;;;;;;;;;;5020149;28;20192;-54
2022/07/17 01:43:48;;;;;;;2.77;2.30;;;;;;;;;;5019048;28;20224;-54
2022/07/17 01:46:15;;;;;;;2.40;2.10;;;;;;;;;;5025714;28;20191;-54
2022/07/17 01:48:41;;;;;;;2.50;2.30;;;;;;;;;;5029339;28;20572;-54
2022/07/17 01:51:07;;;;;;;3.43;2.70;;;;;;;;;;5030824;28;20185;-54
2022/07/17 01:53:33;;;;;;;2.50;2.20;;;;;;;;;;5027795;28;20309;-54
2022/07/17 01:55:59;;;;;;;4.00;2.37;;;;;;;;;;5027040;28;20644;-54
2022/07/17 01:58:25;;;;;;;2.60;2.37;;;;;;;;;;5025940;28;20387;-53
2022/07/17 02:00:51;;;;;;;2.90;2.23;;;;;;;;;;5010543;28;20672;-54
2022/07/17 02:03:17;;;;;;;5.73;5.33;;;;;;;;;;5019689;28;20185;-54
2022/07/17 02:05:44;;;;;;;2.30;2.10;;;;;;;;;;5027844;28;20182;-54
2022/07/17 02:08:10;;;;;;;2.40;2.20;;;;;;;;;;5007295;28;20701;-54
2022/07/17 02:10:36;;;;;;;2.23;1.97;;;;;;;;;;5026749;28;20199;-55
2022/07/17 02:13:02;;;;;;;2.37;2.17;;;;;;;;;;5025142;28;20258;-54
2022/07/17 02:15:28;;;;;;;2.77;2.10;;;;;;;;;;5009663;28;20747;-54
2022/07/17 02:17:54;;;;;;;2.43;2.23;;;;;;;;;;5024657;28;20235;-54
2022/07/17 02:20:20;;;;;;;2.57;2.30;;;;;;;;;;5028646;28;20200;-54
2022/07/17 02:22:46;;;;;;;3.97;2.10;;;;;;;;;;5024525;28;20224;-54
2022/07/17 02:25:13;;;;;;;3.20;2.07;;;;;;;;;;5026634;28;20193;-54
2022/07/17 02:27:40;;;;;;;2.00;1.90;;;;;;;;;;5023828;28;20605;-54
2022/07/17 02:30:08;;;;;;;2.70;2.50;;;;;;;;;;5028564;28;20176;-54
2022/07/17 02:32:34;;;;;;;2.50;2.30;;;;;;;;;;5023266;28;20201;-54
2022/07/17 02:35:00;;;;;;;2.10;1.90;;;;;;;;;;5026849;28;20307;-54
2022/07/17 02:37:26;;;;;;;3.87;2.50;;;;;;;;;;5027143;28;20764;-54
2022/07/17 02:39:52;;;;;;;3.27;2.50;;;;;;;;;;5026145;28;20176;-54
2022/07/17 02:42:19;;;;;;;2.63;2.43;;;;;;;;;;5024209;28;20383;-54
2022/07/17 02:44:46;;;;;;;2.83;2.40;;;;;;;;;;5025410;28;20182;-54
2022/07/17 02:47:12;;;;;;;2.73;2.27;;;;;;;;;;5023891;28;20182;-54
2022/07/17 02:49:38;;;;;;;3.60;2.47;;;;;;;;;;5028139;28;20184;-55
2022/07/17 02:52:04;;;;;;;2.90;2.60;;;;;;;;;;5026769;28;20189;-54
2022/07/17 02:54:30;;;;;;;2.60;2.40;;;;;;;;;;5026875;28;20202;-54
2022/07/17 02:56:56;;;;;;;2.30;2.10;;;;;;;;;;5025735;28;20664;-54
2022/07/17 02:59:22;;;;;;;3.40;2.27;;;;;;;;;;5027964;28;20633;-54
2022/07/17 03:01:48;;;;;;;2.83;2.20;;;;;;;;;;5026002;28;20181;-54
2022/07/17 03:04:15;;;;;;;5.13;2.80;;;;;;;;;;5027691;28;20243;-54
2022/07/17 03:06:41;;;;;;;2.80;2.37;;;;;;;;;;5020090;28;20185;-55
2022/07/17 03:09:09;;;;;;;2.27;2.07;;;;;;;;;;5022232;28;20209;-54
2022/07/17 03:11:36;;;;;;;4.57;2.70;;;;;;;;;;5025663;28;20190;-54
2022/07/17 03:14:02;;;;;;;2.70;2.50;;;;;;;;;;5026171;28;20236;-54
2022/07/17 03:16:28;;;;;;;3.70;3.43;;;;;;;;;;5025445;28;20265;-54
2022/07/17 03:18:54;;;;;;;2.50;2.30;;;;;;;;;;5027150;28;20181;-54
2022/07/17 03:21:20;;;;;;;3.43;2.10;;;;;;;;;;5025769;28;20675;-55
2022/07/17 03:23:46;;;;;;;3.10;2.70;;;;;;;;;;5011698;28;20185;-55
2022/07/17 03:26:12;;;;;;;2.70;2.50;;;;;;;;;;5025400;28;20194;-54
2022/07/17 03:28:38;;;;;;;2.73;2.53;;;;;;;;;;5026861;28;20835;-54
2022/07/17 03:31:04;;;;;;;3.07;2.73;;;;;;;;;;5027029;28;20235;-54
2022/07/17 03:33:33;;;;;;;2.67;2.20;;;;;;;;;;5022993;28;20197;-54
2022/07/17 03:35:59;;;;;;;3.67;2.67;;;;;;;;;;5018572;28;20233;-54
2022/07/17 03:38:25;;;;;;;2.80;2.60;;;;;;;;;;5001177;28;20182;-54
2022/07/17 03:40:51;;;;;;;2.87;2.47;;;;;;;;;;5021812;28;20828;-54
2022/07/17 03:43:20;;;;;;;2.80;2.60;;;;;;;;;;5017186;28;20833;-55
2022/07/17 03:45:46;;;;;;;2.83;2.63;;;;;;;;;;5024375;28;20713;-54
2022/07/17 03:48:12;;;;;;;2.70;2.50;;;;;;;;;;5012655;28;20178;-54
2022/07/17 03:50:38;;;;;;;2.90;2.20;;;;;;;;;;5013275;28;20178;-55
2022/07/17 03:53:04;;;;;;;4.23;2.40;;;;;;;;;;5014992;28;20185;-54
2022/07/17 03:55:30;;;;;;;2.83;2.40;;;;;;;;;;5014607;28;20186;-55
2022/07/17 03:57:56;;;;;;;4.10;2.30;;;;;;;;;;5008389;28;20182;-54
2022/07/17 04:00:22;;;;;;;2.83;2.53;;;;;;;;;;5012108;28;20625;-54
2022/07/17 04:02:48;;;;;;;3.93;2.50;;;;;;;;;;5010999;28;20185;-54
2022/07/17 04:05:14;;;;;;;5.03;4.63;;;;;;;;;;5025462;28;20197;-54
2022/07/17 04:07:42;;;;;;;3.87;2.20;;;;;;;;;;5009691;28;20202;-54
2022/07/17 04:10:10;;;;;;;2.73;2.47;;;;;;;;;;5013951;28;20189;-54
2022/07/17 04:12:36;;;;;;;2.10;2.00;;;;;;;;;;5012067;28;20181;-54
2022/07/17 04:15:02;;;;;;;3.10;2.23;;;;;;;;;;5024867;28;20224;-54
2022/07/17 04:17:36;;;;;;;2.60;2.40;;;;;;;;;;5001029;28;20183;-54
2022/07/17 04:20:03;;;;;;;2.50;2.30;;;;;;;;;;5026290;28;20185;-54
2022/07/17 04:22:29;;;;;;;2.40;2.20;;;;;;;;;;5012596;28;20187;-54
2022/07/17 04:24:55;;;;;;;3.10;2.80;;;;;;;;;;5016678;28;20188;-54
2022/07/17 04:27:21;;;;;;;4.47;3.97;;;;;;;;;;5015323;28;20220;-55
2022/07/17 04:29:47;;;;;;;3.70;3.43;;;;;;;;;;5021975;28;20218;-54
2022/07/17 04:32:13;;;;;;;2.27;2.17;;;;;;;;;;5014421;28;20185;-54
2022/07/17 04:34:39;;;;;;;2.53;2.33;;;;;;;;;;5013690;28;20240;-54
2022/07/17 04:37:06;;;;;;;2.50;2.30;;;;;;;;;;5027986;28;20636;-54
2022/07/17 04:39:32;;;;;;;2.40;2.20;;;;;;;;;;5026167;28;20181;-54
2022/07/17 04:41:58;;;;;;;2.57;2.37;;;;;;;;;;5021611;28;20244;-54
2022/07/17 04:44:24;;;;;;;3.50;2.70;;;;;;;;;;5030527;28;20617;-54
2022/07/17 04:46:50;;;;;;;2.93;2.20;;;;;;;;;;5022947;28;21039;-55
2022/07/17 04:49:16;;;;;;;2.73;2.30;;;;;;;;;;5030574;28;20538;-54
2022/07/17 04:51:42;;;;;;;2.70;2.50;;;;;;;;;;5025584;28;20610;-54
2022/07/17 04:54:08;;;;;;;2.77;2.57;;;;;;;;;;5029658;28;20202;-55
2022/07/17 04:56:34;;;;;;;3.45;2.58;;;;;;;;;;5028009;28;20927;-54
2022/07/17 04:59:00;;;;;;;3.10;2.80;;;;;;;;;;5029690;28;20166;-54
2022/07/17 05:01:27;;;;;;;3.43;2.40;;;;;;;;;;5029971;28;20577;-54
2022/07/17 05:03:53;;;;;;;2.50;2.20;;;;;;;;;;5012442;28;20235;-54
2022/07/17 05:06:19;;;;;;;2.23;2.10;;;;;;;;;;5025378;28;20248;-54
2022/07/17 05:08:45;;;;;;;2.80;2.40;;;;;;;;;;5022774;28;20179;-54
2022/07/17 05:11:11;;;;;;;3.20;2.50;;;;;;;;;;5025373;28;20684;-54
2022/07/17 05:13:37;;;;;;;2.13;2.00;;;;;;;;;;5010398;28;20300;-55
2022/07/17 05:16:04;;;;;;;3.07;2.60;;;;;;;;;;5020526;28;20174;-54
2022/07/17 05:18:30;;;;;;;4.00;2.47;;;;;;;;;;5027051;28;20174;-54
2022/07/17 05:20:56;;;;;;;5.37;2.30;;;;;;;;;;5022746;28;20280;-54
2022/07/17 05:23:22;;;;;;;2.87;2.37;;;;;;;;;;5022371;28;20178;-54
2022/07/17 05:25:48;;;;;;;2.70;2.50;;;;;;;;;;5028821;28;20684;-54
2022/07/17 05:28:14;;;;;;;2.30;2.10;;;;;;;;;;5026586;28;20710;-54
2022/07/17 05:30:40;;;;;;;2.40;2.20;;;;;;;;;;5013895;28;20273;-54
2022/07/17 05:33:06;;;;;;;2.47;2.27;;;;;;;;;;5020628;28;20197;-55
2022/07/17 05:35:32;;;;;;;3.50;2.40;;;;;;;;;;5030388;28;20229;-54
2022/07/17 05:37:58;;;;;;;2.70;2.50;;;;;;;;;;5029078;28;20736;-54
2022/07/17 05:40:27;;;;;;;2.43;2.30;;;;;;;;;;5022249;28;20242;-54
2022/07/17 05:42:53;;;;;;;2.70;2.20;;;;;;;;;;5022224;28;20182;-54
2022/07/17 05:45:20;;;;;;;5.03;2.43;;;;;;;;;;5022564;28;20192;-55
2022/07/17 05:47:46;;;;;;;3.63;2.60;;;;;;;;;;5022305;28;20170;-54
2022/07/17 05:50:12;;;;;;;2.83;2.63;;;;;;;;;;5028746;28;20239;-55
2022/07/17 05:52:38;;;;;;;2.83;2.63;;;;;;;;;;5020832;28;20186;-55
2022/07/17 05:55:04;;;;;;;2.93;2.47;;;;;;;;;;5025363;28;20201;-55
2022/07/17 05:57:30;;;;;;;2.47;2.27;;;;;;;;;;5026211;28;20248;-55
2022/07/17 05:59:56;;;;;;;3.60;2.63;;;;;;;;;;5026629;28;20184;-55
2022/07/17 06:02:23;;;;;;;2.57;2.13;;;;;;;;;;5027964;28;20189;-55
2022/07/17 06:04:49;;;;;;;5.53;2.73;;;;;;;;;;5028306;28;20190;-55
2022/07/17 06:07:15;;;;;;;3.50;2.50;;;;;;;;;;5028073;28;20781;-54
2022/07/17 06:09:41;;;;;;;4.03;2.30;;;;;;;;;;5028325;28;20663;-55
2022/07/17 06:12:07;;;;;;;4.13;3.17;;;;;;;;;;5010009;28;20301;-55
2022/07/17 06:14:33;;;;;;;2.93;2.40;;;;;;;;;;5028960;28;20288;-55
2022/07/17 06:16:59;;;;;;;2.90;2.67;;;;;;;;;;5016905;28;20692;-54
2022/07/17 06:19:25;;;;;;;3.70;2.50;;;;;;;;;;5027953;28;20209;-55
2022/07/17 06:21:52;;;;;;;4.17;2.73;;;;;;;;;;5008492;28;20193;-55
2022/07/17 06:24:18;;;;;;;2.40;2.20;;;;;;;;;;5003449;28;20181;-54
2022/07/17 06:26:44;;;;;;;4.97;2.33;;;;;;;;;;5010072;28;20177;-55
2022/07/17 06:29:10;;;;;;;2.63;2.40;;;;;;;;;;5028014;28;20185;-54
2022/07/17 06:31:36;;;;;;;2.70;2.50;;;;;;;;;;5026236;28;20197;-55
2022/07/17 06:34:02;;;;;;;2.60;2.40;;;;;;;;;;5026881;28;20317;-55
2022/07/17 06:36:28;;;;;;;2.53;2.17;;;;;;;;;;5024973;28;20229;-54
2022/07/17 06:38:54;;;;;;;3.20;2.80;;;;;;;;;;5026553;28;20178;-55
2022/07/17 06:41:20;;;;;;;3.70;2.73;;;;;;;;;;5012455;28;20573;-59
2022/07/17 06:43:46;;;;;;;2.87;2.60;;;;;;;;;;5027648;28;20624;-55
2022/07/17 06:46:12;;;;;;;2.50;2.30;;;;;;;;;;5026003;28;21027;-55
2022/07/17 06:48:39;;;;;;;2.73;2.30;;;;;;;;;;5009511;28;21107;-55
2022/07/17 06:51:05;;;;;;;3.53;2.80;;;;;;;;;;5025976;28;20208;-54
2022/07/17 06:53:31;;;;;;;2.53;2.17;;;;;;;;;;5028928;28;20646;-55
2022/07/17 06:55:57;;;;;;;2.57;2.20;;;;;;;;;;5030232;28;20648;-54
2022/07/17 06:58:24;;;;;;;2.80;2.47;;;;;;;;;;5013410;28;20178;-54
2022/07/17 07:00:50;;;;;;;2.40;2.20;;;;;;;;;;5010571;28;20566;-54
2022/07/17 07:03:17;;;;;;;4.53;2.13;;;;;;;;;;5027626;28;20260;-55
2022/07/17 07:05:43;;;;;;;2.40;2.20;;;;;;;;;;5013006;28;20185;-55
2022/07/17 07:08:09;;;;;;;4.00;2.77;;;;;;;;;;5009222;28;20268;-55
2022/07/17 07:10:35;;;;;;;2.17;2.07;;;;;;;;;;5027205;28;20219;-54
2022/07/17 07:13:01;;;;;;;3.47;2.30;;;;;;;;;;5023579;28;20173;-54
2022/07/17 07:15:28;;;;;;;3.07;2.17;;;;;;;;;;5023128;28;20261;-55
2022/07/17 07:18:00;;;;;;;2.60;2.40;;;;;;;;;;5021120;28;20202;-54
2022/07/17 07:20:27;;;;;;;2.87;2.30;;;;;;;;;;5008276;28;20272;-55
2022/07/17 07:22:53;;;;;;;2.80;2.60;;;;;;;;;;5004333;28;20425;-55
2022/07/17 07:25:20;;;;;;;3.10;2.80;;;;;;;;;;5025379;28;20212;-54
2022/07/17 07:27:46;;;;;;;3.00;2.57;;;;;;;;;;5005520;28;20243;-54
2022/07/17 07:30:12;;;;;;;4.43;2.07;;;;;;;;;;5025554;28;20252;-54
2022/07/17 07:32:40;;;;;;;3.47;2.40;;;;;;;;;;5024244;28;20248;-54
2022/07/17 07:35:07;;;;;;;3.23;2.40;;;;;;;;;;5007990;28;20680;-54
2022/07/17 07:37:33;;;;;;;3.67;2.50;;;;;;;;;;5021115;28;20300;-54
2022/07/17 07:39:59;;;;;;;2.47;2.27;;;;;;;;;;5020986;28;20185;-53
2022/07/17 07:42:26;;;;;;;2.80;2.53;;;;;;;;;;5011774;28;20212;-54
2022/07/17 07:44:52;;;;;;;2.00;1.90;;;;;;;;;;5005300;28;20225;-54
2022/07/17 07:47:18;;;;;;;2.33;2.10;;;;;;;;;;5004579;28;20181;-54
2022/07/17 07:49:44;;;;;;;2.73;2.53;;;;;;;;;;5023219;28;20620;-54
2022/07/17 07:52:10;;;;;;;3.43;2.17;;;;;;;;;;5021070;28;20533;-54
2022/07/17 07:54:37;;;;;;;2.50;2.23;;;;;;;;;;5022410;28;20440;-54
2022/07/17 07:57:03;;;;;;;3.67;2.50;;;;;;;;;;5004460;28;20244;-54
2022/07/17 07:59:33;;;;;;;3.40;2.10;;;;;;;;;;5016446;28;20240;-54
2022/07/17 08:02:00;;;;;;;2.57;2.37;;;;;;;;;;5007664;28;20686;-54
2022/07/17 08:04:26;;;;;;;3.23;2.23;;;;;;;;;;5005321;28;20223;-54
2022/07/17 08:06:53;;;;;;;2.60;2.37;;;;;;;;;;5003963;28;20870;-54
2022/07/17 08:09:23;;;;;;;2.77;2.27;;;;;;;;;;5022487;28;20217;-54
2022/07/17 08:11:49;;;;;;;3.50;1.97;;;;;;;;;;5010838;28;20179;-54
2022/07/17 08:14:15;;;;;;;2.00;1.90;;;;;;;;;;5022868;28;20202;-54
2022/07/17 08:16:41;;;;;;;3.20;2.20;;;;;;;;;;5010538;28;20186;-54
2022/07/17 08:19:08;;;;;;;2.33;2.10;;;;;;;;;;5009718;28;20182;-53
2022/07/17 08:21:34;;;;;;;3.50;2.40;;;;;;;;;;5027858;28;20186;-53
2022/07/17 08:24:00;;;;;;;5.03;2.40;;;;;;;;;;5012554;28;20189;-53
2022/07/17 08:26:26;;;;;;;3.63;2.23;;;;;;;;;;4995200;28;20166;-53
2022/07/17 08:28:52;;;;;;;3.97;2.20;;;;;;;;;;5028389;28;20920;-54
2022/07/17 08:31:21;;;;;;;3.23;2.27;;;;;;;;;;5027997;28;20645;-53
2022/07/17 08:33:47;;;;;;;2.43;2.23;;;;;;;;;;5029499;28;20548;-53
2022/07/17 08:36:13;;;;;;;5.50;2.87;;;;;;;;;;5009901;28;20229;-53
2022/07/17 08:38:39;;;;;;;4.60;3.13;;;;;;;;;;5013879;28;20549;-53
2022/07/17 08:41:06;;;;;;;4.87;3.10;;;;;;;;;;5029456;28;20239;-53
2022/07/17 08:43:32;;;;;;;6.23;3.30;;;;;;;;;;5021285;28;20185;-53
2022/07/17 08:45:59;;;;;;;2.57;2.30;;;;;;;;;;5033061;28;20205;-53
2022/07/17 08:48:27;;;;;;;5.63;3.63;;;;;;;;;;5000526;28;20267;-53
2022/07/17 08:50:55;;;;;;;5.03;3.37;;;;;;;;;;5003904;28;20688;-54
2022/07/17 08:53:21;;;;;;;8.13;3.63;;;;;;;;;;5011141;28;20559;-54
2022/07/17 08:55:48;;;;;;;3.90;3.33;;;;;;;;;;5007083;28;20252;-54
2022/07/17 08:58:15;;;;;;;4.50;3.10;;;;;;;;;;5010352;28;20569;-54
2022/07/17 09:00:42;;;;;;;4.67;3.43;;;;;;;;;;5024414;28;20515;-54
2022/07/17 09:03:09;;;;;;;5.43;3.83;;;;;;;;;;5027354;28;20573;-54
2022/07/17 09:05:39;;;;;;;5.27;3.17;;;;;;;;;;5030515;28;20215;-54
2022/07/17 09:08:10;;;;;;;6.37;3.97;;;;;;;;;;5022944;28;20245;-54
2022/07/17 09:10:46;;;;;;;5.13;3.60;;;;;;;;;;5023087;28;20681;-54
2022/07/17 09:13:22;;;;;;;7.40;3.87;;;;;;;;;;5007717;28;20182;-54
2022/07/17 09:15:49;;;;;;;8.13;3.50;;;;;;;;;;5023754;28;20178;-54
2022/07/17 09:18:17;;;;;;;4.97;3.50;;;;;;;;;;5025472;28;20186;-54
2022/07/17 09:20:53;;;;;;;4.43;3.47;;;;;;;;;;5024379;28;20208;-54
2022/07/17 09:23:20;;;;;;;7.93;4.27;;;;;;;;;;5006901;28;20211;-54
2022/07/17 09:25:48;;;;;;;7.53;3.57;;;;;;;;;;5016079;28;20247;-54
2022/07/17 09:28:15;;;;;;;7.00;3.73;;;;;;;;;;5016239;28;20180;-54
2022/07/17 09:30:42;;;;;;;4.87;3.50;;;;;;;;;;5002101;28;20948;-54
2022/07/17 09:33:12;;;;;;;7.70;3.93;;;;;;;;;;5026075;28;20222;-54
2022/07/17 09:35:45;;;;;;;7.20;3.50;;;;;;;;;;5019948;28;20251;-54
2022/07/17 09:38:11;;;;;;;5.07;3.40;;;;;;;;;;5015983;28;20185;-56
2022/07/17 09:43:22;;;;;;;3.87;2.80;;;;;;;;;;5027816;28;20215;-54
2022/07/17 09:45:48;;;;;;;4.40;3.43;;;;;;;;;;5010228;28;20183;-54
2022/07/17 09:48:15;;;;;;;5.73;3.63;;;;;;;;;;5014933;28;20188;-54
2022/07/17 09:50:41;;;;;;;5.30;3.40;;;;;;;;;;5028424;28;20189;-54
2022/07/17 09:53:08;;;;;;;5.23;3.30;;;;;;;;;;5007503;28;20656;-54
2022/07/17 09:55:34;;;;;;;4.03;3.23;;;;;;;;;;5006848;28;20228;-54
2022/07/17 09:58:03;;;;;;;5.77;3.17;;;;;;;;;;4988806;28;20269;-54
2022/07/17 10:00:32;;;;;;;6.10;3.90;;;;;;;;;;5008610;28;20185;-54
2022/07/17 10:02:58;;;;;;;9.83;4.27;;;;;;;;;;5009207;28;20193;-54
2022/07/17 10:05:24;;;;;;;6.23;3.63;;;;;;;;;;5009133;28;20211;-54
2022/07/17 10:07:51;;;;;;;5.97;3.90;;;;;;;;;;5024396;28;20185;-54
2022/07/17 10:10:19;;;;;;;5.07;3.60;;;;;;;;;;5004860;28;20190;-54
2022/07/17 10:12:46;;;;;;;5.70;3.40;;;;;;;;;;5010461;28;20196;-54
2022/07/17 10:15:13;;;;;;;4.30;3.27;;;;;;;;;;5024014;28;20233;-54
2022/07/17 10:17:42;;;;;;;6.27;3.37;;;;;;;;;;5016836;28;20589;-55
2022/07/17 10:20:10;;;;;;;6.53;4.00;;;;;;;;;;5019987;28;20245;-54
2022/07/17 10:22:43;;;;;;;6.53;3.97;;;;;;;;;;5020614;28;20193;-54
2022/07/17 10:25:13;;;;;;;6.93;4.00;;;;;;;;;;5020696;28;20660;-54
2022/07/17 10:27:46;;;;;;;9.60;3.83;;;;;;;;;;5007558;28;20194;-54
2022/07/17 10:30:13;;;;;;;4.87;3.13;;;;;;;;;;5023944;28;20197;-54
2022/07/17 10:32:39;;;;;;;7.50;3.33;;;;;;;;;;5019027;28;20680;-54
2022/07/17 10:35:07;;;;;;;4.47;3.23;;;;;;;;;;5009825;28;20228;-54
2022/07/17 10:37:39;;;;;;;6.93;3.63;;;;;;;;;;5022297;28;20182;-54
2022/07/17 10:40:05;;;;;;;4.73;3.50;;;;;;;;;;5026468;28;20262;-54
2022/07/17 10:42:38;;;;;;;8.10;3.50;;;;;;;;;;5020986;28;20714;-54
2022/07/17 10:45:09;;;;;;;5.77;3.70;;;;;;;;;;5018582;28;20675;-54
2022/07/17 10:47:45;;;;;;;5.83;3.53;;;;;;;;;;5019206;28;20186;-54
2022/07/17 10:50:12;;;;;;;5.27;3.23;;;;;;;;;;5026571;28;20177;-54
2022/07/17 10:52:38;;;;;;;6.95;4.00;;;;;;;;;;5001917;28;20993;-54
2022/07/17 10:55:05;;;;;;;3.80;3.20;;;;;;;;;;5024518;28;20252;-54
2022/07/17 10:57:35;;;;;;;3.43;3.13;;;;;;;;;;5020402;28;20174;-54
2022/07/17 11:00:01;;;;;;;5.63;3.20;;;;;;;;;;5009475;28;20176;-54
2022/07/17 11:02:29;;;;;;;5.70;3.70;;;;;;;;;;5006090;28;20182;-54
2022/07/17 11:05:06;;;;;;;7.60;3.87;;;;;;;;;;5008165;28;20540;-54
2022/07/17 11:07:32;;;;;;;4.10;3.00;;;;;;;;;;5004027;28;20193;-55
2022/07/17 11:09:58;;;;;;;4.63;3.33;;;;;;;;;;5005460;28;20192;-54
2022/07/17 11:12:34;;;;;;;8.53;3.33;;;;;;;;;;5021324;28;20571;-55
2022/07/17 11:15:01;;;;;;;8.60;2.93;;;;;;;;;;5025303;28;20209;-54
2022/07/17 11:17:27;;;;;;;4.17;3.13;;;;;;;;;;5016770;28;20255;-55
2022/07/17 11:19:53;;;;;;;3.30;2.90;;;;;;;;;;5026294;28;20294;-55
2022/07/17 11:22:29;;;;;;;6.00;3.30;;;;;;;;;;5016792;28;20178;-54
2022/07/17 11:24:55;;;;;;;4.63;3.17;;;;;;;;;;5002903;28;20182;-54
2022/07/17 11:27:26;;;;;;;5.23;3.03;;;;;;;;;;5017609;28;20184;-54
2022/07/17 11:29:53;;;;;;;4.60;2.90;;;;;;;;;;5023290;28;20182;-54
2022/07/17 11:32:19;;;;;;;5.10;3.40;;;;;;;;;;5002301;28;20749;-55
2022/07/17 11:34:46;;;;;;;6.57;3.30;;;;;;;;;;5006555;28;20304;-54
2022/07/17 11:37:12;;;;;;;6.27;3.07;;;;;;;;;;5022769;28;20213;-55
2022/07/17 11:39:51;;;;;;;7.10;3.47;;;;;;;;;;5025131;28;20193;-54
2022/07/17 11:42:21;;;;;;;4.27;3.00;;;;;;;;;;5019111;28;20187;-55
2022/07/17 11:44:50;;;;;;;3.60;3.30;;;;;;;;;;5002943;28;20191;-54
2022/07/17 11:47:26;;;;;;;5.37;3.47;;;;;;;;;;5001746;28;20210;-55
2022/07/17 11:49:53;;;;;;;3.90;3.50;;;;;;;;;;5021444;28;20357;-55
2022/07/17 11:52:20;;;;;;;2.97;2.63;;;;;;;;;;5001181;28;20213;-55
2022/07/17 11:54:51;;;;;;;16.07;3.77;;;;;;;;;;5005272;28;20202;-55
2022/07/17 11:57:18;;;;;;;5.17;4.40;;;;;;;;;;5001060;28;20174;-54
2022/07/17 11:59:45;;;;;;;6.93;6.37;;;;;;;;;;5000321;28;20287;-55
2022/07/17 12:02:12;;;;;;;6.90;5.27;;;;;;;;;;5000270;28;20185;-55
2022/07/17 12:04:51;;;;;;;6.33;2.73;;;;;;;;;;5026632;28;20192;-55
2022/07/17 12:07:17;;;;;;;5.83;3.40;;;;;;;;;;5025216;28;20175;-55
2022/07/17 12:09:43;;;;;;;6.60;2.87;;;;;;;;;;5004374;28;20187;-55
2022/07/17 12:12:28;;;;;;;5.50;3.17;;;;;;;;;;5025008;28;20691;-56
2022/07/17 12:14:59;;;;;;;5.97;3.33;;;;;;;;;;5026433;28;20252;-55
2022/07/17 12:17:26;;;;;;;4.23;2.90;;;;;;;;;;4991946;28;20194;-55
2022/07/17 12:19:52;;;;;;;3.63;2.73;;;;;;;;;;5026253;28;20212;-56
2022/07/17 12:22:19;;;;;;;6.50;4.50;;;;;;;;;;5024531;28;20538;-55
2022/07/17 12:24:46;;;;;;;3.80;3.13;;;;;;;;;;5004643;28;20555;-55
2022/07/17 12:27:17;;;;;;;3.77;3.07;;;;;;;;;;5023589;28;20547;-55
2022/07/17 12:29:44;;;;;;;5.13;3.03;;;;;;;;;;5025792;28;20191;-55
2022/07/17 12:32:14;;;;;;;3.73;2.57;;;;;;;;;;5007006;28;20193;-55
2022/07/17 12:34:45;;;;;;;2.50;2.30;;;;;;;;;;5021864;28;20201;-55
2022/07/17 12:37:15;;;;;;;5.63;2.93;;;;;;;;;;5005500;28;20211;-56
2022/07/17 12:39:42;;;;;;;4.67;2.47;;;;;;;;;;5024598;28;20199;-55
2022/07/17 12:42:09;;;;;;;3.87;2.67;;;;;;;;;;5022986;28;20219;-55
2022/07/17 12:44:35;;;;;;;3.43;2.50;;;;;;;;;;5025635;28;20187;-56
2022/07/17 12:47:05;;;;;;;3.27;2.97;;;;;;;;;;5008032;28;20184;-56
2022/07/17 12:49:31;;;;;;;4.67;2.80;;;;;;;;;;5015606;28;20180;-56
2022/07/17 12:51:57;;;;;;;3.53;3.23;;;;;;;;;;5021884;28;20186;-56
2022/07/17 12:54:23;;;;;;;5.97;3.37;;;;;;;;;;5027131;28;20274;-55
2022/07/17 12:56:56;;;;;;;2.83;2.43;;;;;;;;;;5025957;28;20552;-55
2022/07/17 12:59:22;;;;;;;4.37;2.83;;;;;;;;;;5007269;28;20842;-56
2022/07/17 13:01:48;;;;;;;2.83;2.63;;;;;;;;;;5029182;28;20664;-55
2022/07/17 13:04:15;;;;;;;6.73;3.00;;;;;;;;;;5029628;28;20218;-55
2022/07/17 13:06:41;;;;;;;5.77;2.90;;;;;;;;;;5011392;28;20181;-55
2022/07/17 13:09:12;;;;;;;4.10;2.73;;;;;;;;;;5010795;28;20187;-55
2022/07/17 13:11:41;;;;;;;4.70;2.77;;;;;;;;;;5011390;28;20196;-55
2022/07/17 13:14:11;;;;;;;3.57;2.53;;;;;;;;;;5011234;28;20205;-55
2022/07/17 13:16:38;;;;;;;4.17;3.23;;;;;;;;;;5026643;28;20768;-55
2022/07/17 13:19:11;;;;;;;3.40;2.50;;;;;;;;;;5011258;28;20276;-55
2022/07/17 13:21:38;;;;;;;3.37;2.60;;;;;;;;;;5026909;28;20637;-55
2022/07/17 13:24:05;;;;;;;3.77;3.10;;;;;;;;;;5022550;28;20227;-54
2022/07/17 13:26:31;;;;;;;4.40;2.73;;;;;;;;;;5025721;28;20181;-55
2022/07/17 13:28:57;;;;;;;4.50;3.47;;;;;;;;;;5028463;28;20264;-55
2022/07/17 13:31:23;;;;;;;3.93;2.70;;;;;;;;;;5005007;28;20321;-55
2022/07/17 13:33:49;;;;;;;3.67;2.67;;;;;;;;;;5025337;28;20306;-55
2022/07/17 13:36:16;;;;;;;4.40;3.00;;;;;;;;;;5011228;28;20225;-55
2022/07/17 13:38:42;;;;;;;4.07;2.53;;;;;;;;;;5027694;28;20660;-55
2022/07/17 13:41:09;;;;;;;4.10;3.33;;;;;;;;;;5013967;28;20205;-55
2022/07/17 13:43:35;;;;;;;3.93;2.90;;;;;;;;;;5010822;28;20601;-55
2022/07/17 13:46:01;;;;;;;3.90;3.00;;;;;;;;;;5011361;28;20172;-55
2022/07/17 13:48:27;;;;;;;6.03;3.47;;;;;;;;;;5028862;28;20184;-57
2022/07/17 13:50:53;;;;;;;4.13;3.23;;;;;;;;;;5010650;28;20175;-55
2022/07/17 13:53:20;;;;;;;4.83;3.23;;;;;;;;;;5041436;28;20270;-55
2022/07/17 13:55:46;;;;;;;5.27;3.37;;;;;;;;;;5027312;28;20697;-55
2022/07/17 13:58:12;;;;;;;5.43;3.33;;;;;;;;;;5023438;28;20207;-56
2022/07/17 14:00:39;;;;;;;3.30;3.00;;;;;;;;;;5010945;28;20228;-56
2022/07/17 14:03:05;;;;;;;5.37;4.00;;;;;;;;;;5016597;28;20182;-55
2022/07/17 14:05:31;;;;;;;4.57;3.30;;;;;;;;;;5028489;28;20208;-55
2022/07/17 14:07:58;;;;;;;3.20;2.90;;;;;;;;;;5016923;28;20179;-56
2022/07/17 14:10:24;;;;;;;3.20;2.90;;;;;;;;;;5009874;28;20189;-56
2022/07/17 14:12:52;;;;;;;4.90;3.40;;;;;;;;;;5003633;28;20284;-55
2022/07/17 14:15:18;;;;;;;4.00;3.30;;;;;;;;;;5028417;28;20203;-55
2022/07/17 14:17:44;;;;;;;3.40;3.03;;;;;;;;;;5017942;28;20182;-55
2022/07/17 14:20:13;;;;;;;5.43;4.97;;;;;;;;;;5014469;28;21013;-55
2022/07/17 14:22:40;;;;;;;5.57;3.20;;;;;;;;;;5028573;28;20184;-57
2022/07/17 14:25:06;;;;;;;3.40;2.93;;;;;;;;;;5026914;28;20588;-56
2022/07/17 14:27:42;;;;;;;4.10;3.70;;;;;;;;;;5027992;28;20179;-55
2022/07/17 14:30:09;;;;;;;5.93;3.90;;;;;;;;;;5006886;28;20185;-55
2022/07/17 14:32:35;;;;;;;4.13;2.77;;;;;;;;;;5027105;28;20596;-59
2022/07/17 14:35:04;;;;;;;3.70;3.27;;;;;;;;;;5028824;28;20642;-56
2022/07/17 14:37:31;;;;;;;3.43;3.13;;;;;;;;;;4990295;28;20251;-55
2022/07/17 14:39:57;;;;;;;3.07;2.87;;;;;;;;;;5007879;28;20587;-55
2022/07/17 14:42:23;;;;;;;3.20;3.00;;;;;;;;;;4990409;28;20180;-55
2022/07/17 14:44:50;;;;;;;4.67;3.50;;;;;;;;;;4989713;28;20665;-56